sensor_id;sensor_type;location;lat;lon;timestamp;pressure;altitude;pressure_sealevel;temperature
76901;BMP280;65859;43.020;25.096;2023-10-08T00:01:05;99648.41;;;11.62
76901;BMP280;65859;43.020;25.096;2023-10-08T00:03:56;99641.75;;;11.85
76901;BMP280;65859;43.020;25.096;2023-10-08T00:06:45;99632.66;;;11.86
76901;BMP280;65859;43.020;25.096;2023-10-08T00:09:37;99636.41;;;11.39
76901;BMP280;65859;43.020;25.096;2023-10-08T00:12:22;99626.41;;;11.35
76901;BMP280;65859;43.020;25.096;2023-10-08T00:15:08;99626.25;;;11.87
76901;BMP280;65859;43.020;25.096;2023-10-08T00:17:55;99629.63;;;12.26
76901;BMP280;65859;43.020;25.096;2023-10-08T00:20:39;99621.31;;;11.69
76901;BMP280;65859;43.020;25.096;2023-10-08T00:23:28;99623.13;;;11.39
76901;BMP280;65859;43.020;25.096;2023-10-08T00:26:14;99617.16;;;12.18
76901;BMP280;65859;43.020;25.096;2023-10-08T00:29:06;99623.63;;;12.17
76901;BMP280;65859;43.020;25.096;2023-10-08T00:31:51;99616.59;;;11.10
76901;BMP280;65859;43.020;25.096;2023-10-08T00:34:36;99618.13;;;10.33
76901;BMP280;65859;43.020;25.096;2023-10-08T00:37:26;99611.28;;;10.23
76901;BMP280;65859;43.020;25.096;2023-10-08T00:40:12;99620.59;;;10.12
76901;BMP280;65859;43.020;25.096;2023-10-08T00:42:57;99605.84;;;9.89
76901;BMP280;65859;43.020;25.096;2023-10-08T00:45:42;99605.19;;;9.83
76901;BMP280;65859;43.020;25.096;2023-10-08T00:48:30;99602.47;;;9.97
76901;BMP280;65859;43.020;25.096;2023-10-08T00:51:22;99599.09;;;11.18
76901;BMP280;65859;43.020;25.096;2023-10-08T00:54:08;99596.94;;;10.76
76901;BMP280;65859;43.020;25.096;2023-10-08T00:56:55;99588.66;;;10.95
76901;BMP280;65859;43.020;25.096;2023-10-08T00:59:44;99588.84;;;10.73
76901;BMP280;65859;43.020;25.096;2023-10-08T01:02:34;99585.84;;;10.92
76901;BMP280;65859;43.020;25.096;2023-10-08T01:05:31;99579.78;;;10.31
76901;BMP280;65859;43.020;25.096;2023-10-08T01:08:42;99578.19;;;11.54
76901;BMP280;65859;43.020;25.096;2023-10-08T01:11:34;99576.09;;;11.77
76901;BMP280;65859;43.020;25.096;2023-10-08T01:14:31;99584.78;;;10.75
76901;BMP280;65859;43.020;25.096;2023-10-08T01:17:17;99577.41;;;10.98
76901;BMP280;65859;43.020;25.096;2023-10-08T01:20:04;99571.03;;;10.39
76901;BMP280;65859;43.020;25.096;2023-10-08T01:23:15;99569.16;;;10.31
76901;BMP280;65859;43.020;25.096;2023-10-08T01:26:05;99578.66;;;11.18
76901;BMP280;65859;43.020;25.096;2023-10-08T01:28:55;99576.63;;;11.15
76901;BMP280;65859;43.020;25.096;2023-10-08T01:31:42;99576.31;;;11.63
76901;BMP280;65859;43.020;25.096;2023-10-08T01:34:27;99572.75;;;11.51
76901;BMP280;65859;43.020;25.096;2023-10-08T01:37:16;99566.94;;;11.19
76901;BMP280;65859;43.020;25.096;2023-10-08T01:40:01;99570.72;;;11.56
76901;BMP280;65859;43.020;25.096;2023-10-08T01:42:53;99577.28;;;10.60
76901;BMP280;65859;43.020;25.096;2023-10-08T01:45:39;99578.81;;;11.13
76901;BMP280;65859;43.020;25.096;2023-10-08T01:48:25;99585.75;;;9.96
76901;BMP280;65859;43.020;25.096;2023-10-08T01:51:16;99564.47;;;10.36
76901;BMP280;65859;43.020;25.096;2023-10-08T01:54:13;99567.28;;;10.57
76901;BMP280;65859;43.020;25.096;2023-10-08T01:56:59;99573.97;;;10.98
76901;BMP280;65859;43.020;25.096;2023-10-08T01:59:44;99572.50;;;9.96
76901;BMP280;65859;43.020;25.096;2023-10-08T02:02:30;99560.22;;;10.18
76901;BMP280;65859;43.020;25.096;2023-10-08T02:05:15;99557.41;;;10.06
76901;BMP280;65859;43.020;25.096;2023-10-08T02:08:00;99562.47;;;9.45
76901;BMP280;65859;43.020;25.096;2023-10-08T02:10:48;99571.00;;;9.73
76901;BMP280;65859;43.020;25.096;2023-10-08T02:13:32;99562.09;;;10.09
76901;BMP280;65859;43.020;25.096;2023-10-08T02:16:19;99567.94;;;10.89
76901;BMP280;65859;43.020;25.096;2023-10-08T02:19:06;99570.72;;;10.92
76901;BMP280;65859;43.020;25.096;2023-10-08T02:21:53;99567.59;;;10.90
76901;BMP280;65859;43.020;25.096;2023-10-08T02:24:39;99558.47;;;11.17
76901;BMP280;65859;43.020;25.096;2023-10-08T02:27:24;99556.41;;;11.31
76901;BMP280;65859;43.020;25.096;2023-10-08T02:30:10;99552.91;;;10.93
76901;BMP280;65859;43.020;25.096;2023-10-08T02:32:58;99552.78;;;10.89
76901;BMP280;65859;43.020;25.096;2023-10-08T02:35:47;99549.97;;;10.51
76901;BMP280;65859;43.020;25.096;2023-10-08T02:38:32;99553.56;;;10.55
76901;BMP280;65859;43.020;25.096;2023-10-08T02:41:21;99560.00;;;9.80
76901;BMP280;65859;43.020;25.096;2023-10-08T02:44:09;99552.13;;;10.14
76901;BMP280;65859;43.020;25.096;2023-10-08T02:46:56;99551.03;;;10.33
76901;BMP280;65859;43.020;25.096;2023-10-08T02:49:40;99558.72;;;9.77
76901;BMP280;65859;43.020;25.096;2023-10-08T02:52:25;99547.63;;;10.93
76901;BMP280;65859;43.020;25.096;2023-10-08T02:55:11;99560.25;;;11.04
76901;BMP280;65859;43.020;25.096;2023-10-08T02:58:25;99552.00;;;10.37
76901;BMP280;65859;43.020;25.096;2023-10-08T03:01:12;99548.75;;;10.48
76901;BMP280;65859;43.020;25.096;2023-10-08T03:03:58;99544.16;;;10.84
76901;BMP280;65859;43.020;25.096;2023-10-08T03:06:49;99545.63;;;10.64
76901;BMP280;65859;43.020;25.096;2023-10-08T03:09:35;99530.91;;;9.97
76901;BMP280;65859;43.020;25.096;2023-10-08T03:12:19;99530.13;;;10.05
76901;BMP280;65859;43.020;25.096;2023-10-08T03:15:09;99534.75;;;9.42
76901;BMP280;65859;43.020;25.096;2023-10-08T03:18:13;99533.56;;;10.66
76901;BMP280;65859;43.020;25.096;2023-10-08T03:21:06;99534.69;;;10.48
76901;BMP280;65859;43.020;25.096;2023-10-08T03:24:04;99534.22;;;10.63
76901;BMP280;65859;43.020;25.096;2023-10-08T03:26:58;99529.22;;;10.62
76901;BMP280;65859;43.020;25.096;2023-10-08T03:30:05;99535.28;;;10.62
76901;BMP280;65859;43.020;25.096;2023-10-08T03:32:51;99526.53;;;10.01
76901;BMP280;65859;43.020;25.096;2023-10-08T03:35:41;99523.19;;;9.78
76901;BMP280;65859;43.020;25.096;2023-10-08T03:38:27;99526.19;;;9.45
76901;BMP280;65859;43.020;25.096;2023-10-08T03:41:13;99531.22;;;10.21
76901;BMP280;65859;43.020;25.096;2023-10-08T03:44:01;99524.84;;;10.57
76901;BMP280;65859;43.020;25.096;2023-10-08T03:46:46;99526.25;;;10.54
76901;BMP280;65859;43.020;25.096;2023-10-08T03:49:32;99522.06;;;9.70
76901;BMP280;65859;43.020;25.096;2023-10-08T03:52:18;99526.28;;;9.71
76901;BMP280;65859;43.020;25.096;2023-10-08T03:55:10;99532.75;;;8.95
76901;BMP280;65859;43.020;25.096;2023-10-08T03:58:06;99528.25;;;10.06
76901;BMP280;65859;43.020;25.096;2023-10-08T04:00:56;99526.19;;;9.94
76901;BMP280;65859;43.020;25.096;2023-10-08T04:03:54;99520.59;;;9.95
76901;BMP280;65859;43.020;25.096;2023-10-08T04:06:43;99526.13;;;9.68
76901;BMP280;65859;43.020;25.096;2023-10-08T04:09:35;99523.03;;;9.75
76901;BMP280;65859;43.020;25.096;2023-10-08T04:12:21;99527.56;;;8.31
76901;BMP280;65859;43.020;25.096;2023-10-08T04:15:07;99527.19;;;8.60
76901;BMP280;65859;43.020;25.096;2023-10-08T04:17:52;99528.97;;;9.80
76901;BMP280;65859;43.020;25.096;2023-10-08T04:20:37;99517.50;;;10.19
76901;BMP280;65859;43.020;25.096;2023-10-08T04:23:22;99525.19;;;9.81
76901;BMP280;65859;43.020;25.096;2023-10-08T04:26:06;99523.69;;;9.89
76901;BMP280;65859;43.020;25.096;2023-10-08T04:28:56;99519.56;;;9.74
76901;BMP280;65859;43.020;25.096;2023-10-08T04:31:47;99519.75;;;9.78
76901;BMP280;65859;43.020;25.096;2023-10-08T04:34:38;99529.63;;;9.55
76901;BMP280;65859;43.020;25.096;2023-10-08T04:37:30;99526.81;;;8.53
76901;BMP280;65859;43.020;25.096;2023-10-08T04:40:17;99522.13;;;8.50
76901;BMP280;65859;43.020;25.096;2023-10-08T04:43:02;99519.59;;;8.45
76901;BMP280;65859;43.020;25.096;2023-10-08T04:45:48;99522.69;;;8.10
76901;BMP280;65859;43.020;25.096;2023-10-08T04:48:34;99516.97;;;8.31
76901;BMP280;65859;43.020;25.096;2023-10-08T04:51:21;99514.13;;;9.70
76901;BMP280;65859;43.020;25.096;2023-10-08T04:54:07;99519.56;;;10.22
76901;BMP280;65859;43.020;25.096;2023-10-08T04:56:52;99515.47;;;9.51
76901;BMP280;65859;43.020;25.096;2023-10-08T04:59:37;99515.34;;;10.39
76901;BMP280;65859;43.020;25.096;2023-10-08T05:02:22;99505.00;;;10.89
76901;BMP280;65859;43.020;25.096;2023-10-08T05:05:33;99508.91;;;11.21
76901;BMP280;65859;43.020;25.096;2023-10-08T05:08:39;99496.28;;;10.19
76901;BMP280;65859;43.020;25.096;2023-10-08T05:11:42;99505.03;;;11.27
76901;BMP280;65859;43.020;25.096;2023-10-08T05:14:36;99502.13;;;11.12
76901;BMP280;65859;43.020;25.096;2023-10-08T05:17:41;99505.94;;;10.33
76901;BMP280;65859;43.020;25.096;2023-10-08T05:20:35;99495.81;;;10.09
76901;BMP280;65859;43.020;25.096;2023-10-08T05:23:35;99494.84;;;10.65
76901;BMP280;65859;43.020;25.096;2023-10-08T05:26:41;99504.78;;;11.03
76901;BMP280;65859;43.020;25.096;2023-10-08T05:29:26;99504.41;;;12.10
76901;BMP280;65859;43.020;25.096;2023-10-08T05:32:34;99515.63;;;12.37
76901;BMP280;65859;43.020;25.096;2023-10-08T05:35:38;99495.50;;;11.56
76901;BMP280;65859;43.020;25.096;2023-10-08T05:38:27;99508.09;;;11.38
76901;BMP280;65859;43.020;25.096;2023-10-08T05:41:15;99504.81;;;11.32
76901;BMP280;65859;43.020;25.096;2023-10-08T05:44:23;99507.38;;;11.29
76901;BMP280;65859;43.020;25.096;2023-10-08T05:47:08;99497.75;;;11.75
76901;BMP280;65859;43.020;25.096;2023-10-08T05:50:28;99513.00;;;12.94
76901;BMP280;65859;43.020;25.096;2023-10-08T05:53:24;99507.16;;;13.13
76901;BMP280;65859;43.020;25.096;2023-10-08T05:56:28;99504.94;;;12.58
76901;BMP280;65859;43.020;25.096;2023-10-08T05:59:13;99504.63;;;12.71
76901;BMP280;65859;43.020;25.096;2023-10-08T06:02:02;99508.91;;;12.97
76901;BMP280;65859;43.020;25.096;2023-10-08T06:05:11;99497.88;;;11.78
76901;BMP280;65859;43.020;25.096;2023-10-08T06:07:56;99490.19;;;13.95
76901;BMP280;65859;43.020;25.096;2023-10-08T06:10:55;99491.44;;;13.85
76901;BMP280;65859;43.020;25.096;2023-10-08T06:13:43;99487.09;;;14.64
76901;BMP280;65859;43.020;25.096;2023-10-08T06:16:29;99481.94;;;14.28
76901;BMP280;65859;43.020;25.096;2023-10-08T06:19:26;99481.03;;;14.08
76901;BMP280;65859;43.020;25.096;2023-10-08T06:22:11;99480.53;;;14.46
76901;BMP280;65859;43.020;25.096;2023-10-08T06:24:55;99479.00;;;14.92
76901;BMP280;65859;43.020;25.096;2023-10-08T06:28:00;99480.81;;;13.48
76901;BMP280;65859;43.020;25.096;2023-10-08T06:30:49;99470.97;;;14.45
76901;BMP280;65859;43.020;25.096;2023-10-08T06:33:34;99462.53;;;13.87
76901;BMP280;65859;43.020;25.096;2023-10-08T06:36:18;99459.25;;;14.81
76901;BMP280;65859;43.020;25.096;2023-10-08T06:39:08;99462.47;;;13.99
76901;BMP280;65859;43.020;25.096;2023-10-08T06:41:57;99463.72;;;15.63
76901;BMP280;65859;43.020;25.096;2023-10-08T06:44:45;99455.63;;;15.05
76901;BMP280;65859;43.020;25.096;2023-10-08T06:47:33;99455.75;;;15.12
76901;BMP280;65859;43.020;25.096;2023-10-08T06:50:17;99446.91;;;15.08
76901;BMP280;65859;43.020;25.096;2023-10-08T06:53:03;99445.47;;;15.84
76901;BMP280;65859;43.020;25.096;2023-10-08T06:55:51;99448.94;;;15.69
76901;BMP280;65859;43.020;25.096;2023-10-08T06:58:43;99438.44;;;15.41
76901;BMP280;65859;43.020;25.096;2023-10-08T07:01:32;99438.50;;;16.71
76901;BMP280;65859;43.020;25.096;2023-10-08T07:04:30;99441.59;;;16.47
76901;BMP280;65859;43.020;25.096;2023-10-08T07:07:14;99432.16;;;16.80
76901;BMP280;65859;43.020;25.096;2023-10-08T07:10:03;99433.84;;;16.65
76901;BMP280;65859;43.020;25.096;2023-10-08T07:12:49;99436.66;;;17.62
76901;BMP280;65859;43.020;25.096;2023-10-08T07:15:39;99435.06;;;18.90
76901;BMP280;65859;43.020;25.096;2023-10-08T07:18:25;99429.91;;;18.64
76901;BMP280;65859;43.020;25.096;2023-10-08T07:21:10;99431.13;;;18.77
76901;BMP280;65859;43.020;25.096;2023-10-08T07:23:58;99425.47;;;18.89
76901;BMP280;65859;43.020;25.096;2023-10-08T07:26:46;99423.03;;;19.53
76901;BMP280;65859;43.020;25.096;2023-10-08T07:29:31;99419.53;;;19.42
76901;BMP280;65859;43.020;25.096;2023-10-08T07:32:17;99411.16;;;19.79
76901;BMP280;65859;43.020;25.096;2023-10-08T07:35:06;99415.78;;;20.00
76901;BMP280;65859;43.020;25.096;2023-10-08T07:38:21;99408.00;;;20.66
76901;BMP280;65859;43.020;25.096;2023-10-08T07:41:06;99404.25;;;20.31
76901;BMP280;65859;43.020;25.096;2023-10-08T07:43:51;99398.72;;;20.74
76901;BMP280;65859;43.020;25.096;2023-10-08T07:46:44;99386.94;;;22.27
76901;BMP280;65859;43.020;25.096;2023-10-08T07:49:28;99390.22;;;24.66
76901;BMP280;65859;43.020;25.096;2023-10-08T07:52:16;99397.00;;;25.75
76901;BMP280;65859;43.020;25.096;2023-10-08T07:55:01;99375.56;;;22.77
76901;BMP280;65859;43.020;25.096;2023-10-08T07:57:50;99365.31;;;22.91
76901;BMP280;65859;43.020;25.096;2023-10-08T08:00:35;99357.47;;;23.51
76901;BMP280;65859;43.020;25.096;2023-10-08T08:03:23;99356.03;;;23.89
76901;BMP280;65859;43.020;25.096;2023-10-08T08:06:09;99345.56;;;23.91
76901;BMP280;65859;43.020;25.096;2023-10-08T08:08:54;99342.97;;;24.64
76901;BMP280;65859;43.020;25.096;2023-10-08T08:11:39;99356.88;;;25.79
76901;BMP280;65859;43.020;25.096;2023-10-08T08:14:24;99345.56;;;25.52
76901;BMP280;65859;43.020;25.096;2023-10-08T08:17:10;99323.91;;;24.83
76901;BMP280;65859;43.020;25.096;2023-10-08T08:19:58;99331.41;;;24.60
76901;BMP280;65859;43.020;25.096;2023-10-08T08:22:43;99339.78;;;25.66
76901;BMP280;65859;43.020;25.096;2023-10-08T08:25:41;99348.00;;;27.78
76901;BMP280;65859;43.020;25.096;2023-10-08T08:28:45;99325.31;;;28.43
76901;BMP280;65859;43.020;25.096;2023-10-08T08:31:30;99308.63;;;27.23
76901;BMP280;65859;43.020;25.096;2023-10-08T08:34:16;99312.06;;;26.38
76901;BMP280;65859;43.020;25.096;2023-10-08T08:37:04;99311.41;;;26.34
76901;BMP280;65859;43.020;25.096;2023-10-08T08:39:49;99313.41;;;26.72
76901;BMP280;65859;43.020;25.096;2023-10-08T08:42:34;99311.13;;;26.32
76901;BMP280;65859;43.020;25.096;2023-10-08T08:45:23;99307.38;;;26.89
76901;BMP280;65859;43.020;25.096;2023-10-08T08:48:11;99303.28;;;27.54
76901;BMP280;65859;43.020;25.096;2023-10-08T08:50:57;99297.59;;;26.92
76901;BMP280;65859;43.020;25.096;2023-10-08T08:53:42;99290.25;;;27.14
76901;BMP280;65859;43.020;25.096;2023-10-08T08:56:29;99281.09;;;27.08
76901;BMP280;65859;43.020;25.096;2023-10-08T08:59:15;99283.56;;;27.15
76901;BMP280;65859;43.020;25.096;2023-10-08T09:02:02;99267.09;;;27.19
76901;BMP280;65859;43.020;25.096;2023-10-08T09:04:49;99280.44;;;27.04
76901;BMP280;65859;43.020;25.096;2023-10-08T09:07:35;99280.91;;;27.59
76901;BMP280;65859;43.020;25.096;2023-10-08T09:10:20;99278.28;;;26.86
76901;BMP280;65859;43.020;25.096;2023-10-08T09:13:10;99280.78;;;27.06
76901;BMP280;65859;43.020;25.096;2023-10-08T09:16:13;99270.09;;;27.34
76901;BMP280;65859;43.020;25.096;2023-10-08T09:19:00;99264.97;;;27.79
76901;BMP280;65859;43.020;25.096;2023-10-08T09:24:49;99260.78;;;27.66
76901;BMP280;65859;43.020;25.096;2023-10-08T09:27:36;99249.19;;;27.52
76901;BMP280;65859;43.020;25.096;2023-10-08T09:30:22;99247.34;;;27.28
76901;BMP280;65859;43.020;25.096;2023-10-08T09:33:11;99248.28;;;27.77
76901;BMP280;65859;43.020;25.096;2023-10-08T09:36:00;99226.34;;;27.59
76901;BMP280;65859;43.020;25.096;2023-10-08T09:38:52;99235.53;;;27.52
76901;BMP280;65859;43.020;25.096;2023-10-08T12:48:34;99074.06;;;27.26
76901;BMP280;65859;43.020;25.096;2023-10-08T12:51:25;99062.06;;;27.15
76901;BMP280;65859;43.020;25.096;2023-10-08T12:54:10;99058.66;;;27.33
76901;BMP280;65859;43.020;25.096;2023-10-08T12:57:06;99065.22;;;27.44
76901;BMP280;65859;43.020;25.096;2023-10-08T12:59:53;99052.19;;;27.08
76901;BMP280;65859;43.020;25.096;2023-10-08T13:02:41;99056.44;;;27.09
76901;BMP280;65859;43.020;25.096;2023-10-08T13:05:26;99052.06;;;26.90
76901;BMP280;65859;43.020;25.096;2023-10-08T13:08:12;99051.78;;;26.88
76901;BMP280;65859;43.020;25.096;2023-10-08T13:10:58;99051.78;;;26.88
76901;BMP280;65859;43.020;25.096;2023-10-08T13:13:45;99038.38;;;27.03
76901;BMP280;65859;43.020;25.096;2023-10-08T13:16:32;99050.41;;;27.14
76901;BMP280;65859;43.020;25.096;2023-10-08T13:19:17;99042.06;;;27.09
76901;BMP280;65859;43.020;25.096;2023-10-08T13:22:05;99037.72;;;27.20
76901;BMP280;65859;43.020;25.096;2023-10-08T13:24:51;99039.25;;;27.00
76901;BMP280;65859;43.020;25.096;2023-10-08T13:27:36;99035.72;;;27.12
76901;BMP280;65859;43.020;25.096;2023-10-08T13:30:23;99045.19;;;26.98
76901;BMP280;65859;43.020;25.096;2023-10-08T13:33:08;99029.84;;;26.91
76901;BMP280;65859;43.020;25.096;2023-10-08T13:35:54;99045.81;;;27.02
76901;BMP280;65859;43.020;25.096;2023-10-08T13:38:40;99046.34;;;26.97
76901;BMP280;65859;43.020;25.096;2023-10-08T13:41:25;99037.16;;;26.73
76901;BMP280;65859;43.020;25.096;2023-10-08T13:44:14;99045.63;;;26.75
76901;BMP280;65859;43.020;25.096;2023-10-08T13:46:59;99055.63;;;26.78
76901;BMP280;65859;43.020;25.096;2023-10-08T13:49:44;99048.78;;;26.73
76901;BMP280;65859;43.020;25.096;2023-10-08T13:52:32;99059.72;;;26.61
76901;BMP280;65859;43.020;25.096;2023-10-08T13:55:21;99059.19;;;26.66
76901;BMP280;65859;43.020;25.096;2023-10-08T13:58:10;99038.72;;;26.39
76901;BMP280;65859;43.020;25.096;2023-10-08T14:00:54;99038.28;;;26.28
76901;BMP280;65859;43.020;25.096;2023-10-08T14:03:39;99043.38;;;26.39
76901;BMP280;65859;43.020;25.096;2023-10-08T14:06:26;99057.91;;;26.23
76901;BMP280;65859;43.020;25.096;2023-10-08T14:09:10;99059.00;;;26.26
76901;BMP280;65859;43.020;25.096;2023-10-08T14:12:05;99058.56;;;26.27
76901;BMP280;65859;43.020;25.096;2023-10-08T14:14:52;99057.91;;;26.23
76901;BMP280;65859;43.020;25.096;2023-10-08T14:17:37;99055.63;;;26.09
76901;BMP280;65859;43.020;25.096;2023-10-08T14:20:27;99064.44;;;26.13
76901;BMP280;65859;43.020;25.096;2023-10-08T14:23:17;99045.94;;;26.20
76901;BMP280;65859;43.020;25.096;2023-10-08T14:26:02;99051.16;;;26.15
76901;BMP280;65859;43.020;25.096;2023-10-08T14:28:51;99049.56;;;26.05
76901;BMP280;65859;43.020;25.096;2023-10-08T14:31:38;99054.88;;;26.08
76901;BMP280;65859;43.020;25.096;2023-10-08T14:34:23;99076.13;;;26.01
76901;BMP280;65859;43.020;25.096;2023-10-08T14:37:34;99082.78;;;26.00
76901;BMP280;65859;43.020;25.096;2023-10-08T14:40:38;99063.31;;;25.88
76901;BMP280;65859;43.020;25.096;2023-10-08T14:43:41;99079.28;;;25.86
76901;BMP280;65859;43.020;25.096;2023-10-08T14:46:27;99073.09;;;25.73
76901;BMP280;65859;43.020;25.096;2023-10-08T14:49:16;99075.69;;;25.64
76901;BMP280;65859;43.020;25.096;2023-10-08T14:52:00;99083.31;;;25.82
76901;BMP280;65859;43.020;25.096;2023-10-08T14:54:50;99090.09;;;25.77
76901;BMP280;65859;43.020;25.096;2023-10-08T14:57:36;99087.22;;;25.68
76901;BMP280;65859;43.020;25.096;2023-10-08T15:00:22;99098.09;;;25.55
76901;BMP280;65859;43.020;25.096;2023-10-08T15:03:10;99090.19;;;25.74
76901;BMP280;65859;43.020;25.096;2023-10-08T15:05:57;99101.78;;;25.62
76901;BMP280;65859;43.020;25.096;2023-10-08T15:08:43;99099.38;;;25.51
76901;BMP280;65859;43.020;25.096;2023-10-08T15:11:27;99099.28;;;25.54
76901;BMP280;65859;43.020;25.096;2023-10-08T15:14:15;99106.34;;;25.52
76901;BMP280;65859;43.020;25.096;2023-10-08T15:17:00;99105.09;;;25.40
76901;BMP280;65859;43.020;25.096;2023-10-08T15:19:45;99086.44;;;25.42
76901;BMP280;65859;43.020;25.096;2023-10-08T15:22:31;99096.75;;;25.47
76901;BMP280;65859;43.020;25.096;2023-10-08T15:25:18;99115.25;;;25.40
76901;BMP280;65859;43.020;25.096;2023-10-08T15:28:03;99109.16;;;25.36
76901;BMP280;65859;43.020;25.096;2023-10-08T15:30:51;99120.63;;;25.27
76901;BMP280;65859;43.020;25.096;2023-10-08T15:33:39;99131.06;;;25.16
76901;BMP280;65859;43.020;25.096;2023-10-08T15:36:24;99136.50;;;25.16
76901;BMP280;65859;43.020;25.096;2023-10-08T15:39:11;99141.94;;;25.16
76901;BMP280;65859;43.020;25.096;2023-10-08T15:41:58;99151.34;;;25.11
76901;BMP280;65859;43.020;25.096;2023-10-08T15:44:43;99149.59;;;25.05
76901;BMP280;65859;43.020;25.096;2023-10-08T15:47:28;99165.22;;;25.01
76901;BMP280;65859;43.020;25.096;2023-10-08T15:50:13;99164.47;;;25.00
76901;BMP280;65859;43.020;25.096;2023-10-08T15:52:58;99172.78;;;24.93
76901;BMP280;65859;43.020;25.096;2023-10-08T15:55:44;99174.47;;;24.87
76901;BMP280;65859;43.020;25.096;2023-10-08T15:58:28;99179.25;;;24.83
76901;BMP280;65859;43.020;25.096;2023-10-08T16:01:13;99185.09;;;24.81
76901;BMP280;65859;43.020;25.096;2023-10-08T16:03:58;99192.22;;;24.75
76901;BMP280;65859;43.020;25.096;2023-10-08T16:06:43;99198.25;;;24.67
76901;BMP280;65859;43.020;25.096;2023-10-08T16:09:28;99194.94;;;24.59
76901;BMP280;65859;43.020;25.096;2023-10-08T16:12:13;99221.38;;;24.55
76901;BMP280;65859;43.020;25.096;2023-10-08T16:14:58;99223.50;;;24.47
76901;BMP280;65859;43.020;25.096;2023-10-08T16:17:43;99227.59;;;24.39
76901;BMP280;65859;43.020;25.096;2023-10-08T16:20:28;99220.25;;;24.36
76901;BMP280;65859;43.020;25.096;2023-10-08T16:23:15;99230.44;;;24.32
76901;BMP280;65859;43.020;25.096;2023-10-08T16:26:03;99223.56;;;24.28
76901;BMP280;65859;43.020;25.096;2023-10-08T16:28:50;99217.63;;;24.16
76901;BMP280;65859;43.020;25.096;2023-10-08T16:31:35;99237.38;;;24.17
76901;BMP280;65859;43.020;25.096;2023-10-08T16:34:25;99237.06;;;24.11
76901;BMP280;65859;43.020;25.096;2023-10-08T16:37:11;99247.97;;;24.08
76901;BMP280;65859;43.020;25.096;2023-10-08T16:39:59;99256.13;;;24.08
76901;BMP280;65859;43.020;25.096;2023-10-08T16:42:44;99250.38;;;24.06
76901;BMP280;65859;43.020;25.096;2023-10-08T16:45:31;99246.84;;;24.09
76901;BMP280;65859;43.020;25.096;2023-10-08T16:48:17;99267.72;;;24.08
76901;BMP280;65859;43.020;25.096;2023-10-08T16:51:02;99270.25;;;23.99
76901;BMP280;65859;43.020;25.096;2023-10-08T16:53:47;99265.25;;;23.98
76901;BMP280;65859;43.020;25.096;2023-10-08T16:56:33;99272.59;;;23.97
76901;BMP280;65859;43.020;25.096;2023-10-08T16:59:18;99282.50;;;23.87
76901;BMP280;65859;43.020;25.096;2023-10-08T17:02:03;99278.22;;;23.86
76901;BMP280;65859;43.020;25.096;2023-10-08T17:04:48;99271.84;;;23.77
76901;BMP280;65859;43.020;25.096;2023-10-08T17:07:33;99284.34;;;23.71
76901;BMP280;65859;43.020;25.096;2023-10-08T17:10:17;99290.06;;;23.76
76901;BMP280;65859;43.020;25.096;2023-10-08T17:13:02;99292.06;;;23.72
76901;BMP280;65859;43.020;25.096;2023-10-08T17:15:48;99280.94;;;23.67
76901;BMP280;65859;43.020;25.096;2023-10-08T17:18:33;99298.91;;;23.57
76901;BMP280;65859;43.020;25.096;2023-10-08T17:21:19;99296.56;;;23.59
76901;BMP280;65859;43.020;25.096;2023-10-08T17:24:07;99297.69;;;23.62
76901;BMP280;65859;43.020;25.096;2023-10-08T17:26:54;99311.75;;;23.53
76901;BMP280;65859;43.020;25.096;2023-10-08T17:29:40;99305.56;;;23.52
76901;BMP280;65859;43.020;25.096;2023-10-08T17:32:26;99312.25;;;23.48
76901;BMP280;65859;43.020;25.096;2023-10-08T17:35:10;99295.66;;;23.42
76901;BMP280;65859;43.020;25.096;2023-10-08T17:37:55;99308.00;;;23.47
76901;BMP280;65859;43.020;25.096;2023-10-08T17:40:40;99297.28;;;23.40
76901;BMP280;65859;43.020;25.096;2023-10-08T17:43:25;99318.25;;;23.36
76901;BMP280;65859;43.020;25.096;2023-10-08T17:46:10;99305.84;;;23.35
76901;BMP280;65859;43.020;25.096;2023-10-08T17:48:55;99332.19;;;23.34
76901;BMP280;65859;43.020;25.096;2023-10-08T17:51:40;99304.34;;;23.34
76901;BMP280;65859;43.020;25.096;2023-10-08T17:54:25;99321.44;;;23.27
76901;BMP280;65859;43.020;25.096;2023-10-08T17:57:13;99320.31;;;23.28
76901;BMP280;65859;43.020;25.096;2023-10-08T17:59:59;99312.63;;;23.23
76901;BMP280;65859;43.020;25.096;2023-10-08T18:02:45;99316.91;;;23.20
76901;BMP280;65859;43.020;25.096;2023-10-08T18:05:30;99324.06;;;23.11
76901;BMP280;65859;43.020;25.096;2023-10-08T18:08:16;99326.66;;;23.18
76901;BMP280;65859;43.020;25.096;2023-10-08T18:11:02;99334.41;;;23.16
76901;BMP280;65859;43.020;25.096;2023-10-08T18:13:52;99340.19;;;23.18
76901;BMP280;65859;43.020;25.096;2023-10-08T18:16:38;99346.72;;;23.20
76901;BMP280;65859;43.020;25.096;2023-10-08T18:19:25;99351.06;;;23.14
76901;BMP280;65859;43.020;25.096;2023-10-08T18:22:10;99346.38;;;23.18
76901;BMP280;65859;43.020;25.096;2023-10-08T18:24:55;99343.78;;;23.08
76901;BMP280;65859;43.020;25.096;2023-10-08T18:27:43;99337.72;;;23.00
76901;BMP280;65859;43.020;25.096;2023-10-08T18:30:28;99352.03;;;23.01
76901;BMP280;65859;43.020;25.096;2023-10-08T18:33:13;99350.56;;;22.96
76901;BMP280;65859;43.020;25.096;2023-10-08T18:36:08;99345.22;;;22.89
76901;BMP280;65859;43.020;25.096;2023-10-08T18:38:54;99349.84;;;22.92
76901;BMP280;65859;43.020;25.096;2023-10-08T18:41:43;99353.66;;;22.94
76901;BMP280;65859;43.020;25.096;2023-10-08T18:44:28;99343.78;;;22.84
76901;BMP280;65859;43.020;25.096;2023-10-08T18:47:13;99363.03;;;22.86
76901;BMP280;65859;43.020;25.096;2023-10-08T18:49:59;99342.63;;;22.82
76901;BMP280;65859;43.020;25.096;2023-10-08T18:52:44;99366.81;;;22.96
76901;BMP280;65859;43.020;25.096;2023-10-08T18:55:29;99359.97;;;22.88
76901;BMP280;65859;43.020;25.096;2023-10-08T18:58:16;99378.06;;;22.91
76901;BMP280;65859;43.020;25.096;2023-10-08T19:01:02;99379.00;;;22.81
76901;BMP280;65859;43.020;25.096;2023-10-08T19:03:48;99375.84;;;22.82
76901;BMP280;65859;43.020;25.096;2023-10-08T19:06:33;99370.94;;;22.77